Time,TemperatureF,DewpointF,PressureIn,WindDirection,WindDirectionDegrees,WindSpeedMPH,WindSpeedGustMPH,Humidity,HourlyPrecipIn,Conditions,Clouds,dailyrainin,SolarRadiationWatts/m^2,SoftwareType,DateUTC
2013-04-22 00:21:00,53.0,53.0,-100.00,West,271,0.0,3.0,99,0.00,,,0.00,0.000000,,2013-04-22 07:21:00,
2013-04-22 00:32:00,53.0,53.0,-100.00,West,271,0.0,3.0,99,0.00,,,0.00,0.000000,,2013-04-22 07:32:00,
2013-04-22 00:42:00,53.0,53.0,-100.00,West,271,0.0,3.0,99,0.00,,,0.00,0.000000,,2013-04-22 07:42:00,
2013-04-22 00:51:00,53.0,53.0,-100.00,WNW,300,2.0,4.0,100,0.00,,,-99.99,0.000000,,2013-04-22 07:51:00,
2013-04-22 01:22:00,53.0,53.0,-100.00,WNW,300,2.0,4.0,100,0.00,,,-99.99,0.000000,,2013-04-22 08:22:00,
2013-04-22 01:32:00,53.0,53.0,-100.00,WNW,300,2.0,4.0,100,0.00,,,-99.99,0.000000,,2013-04-22 08:32:00,
2013-04-22 01:42:00,53.0,53.0,-100.00,WNW,300,2.0,4.0,100,0.00,,,-99.99,0.000000,,2013-04-22 08:42:00,
2013-04-22 01:51:00,52.0,52.0,-100.00,SW,218,3.0,5.0,100,0.00,,,0.00,0.000000,,2013-04-22 08:51:00,
2013-04-22 02:11:00,52.0,52.0,-100.00,SW,218,3.0,5.0,100,0.00,,,0.00,0.000000,,2013-04-22 09:11:00,
2013-04-22 02:21:00,52.0,52.0,-100.00,SW,218,3.0,5.0,100,0.00,,,0.00,0.000000,,2013-04-22 09:21:00,
2013-04-22 02:33:00,52.0,52.0,-100.00,SW,218,3.0,5.0,100,0.00,,,0.00,0.000000,,2013-04-22 09:33:00,
2013-04-22 02:42:00,52.0,52.0,-100.00,SW,218,3.0,5.0,100,0.00,,,0.00,0.000000,,2013-04-22 09:42:00,
2013-04-22 02:51:00,51.0,51.0,-100.00,West,274,4.0,5.0,100,0.00,,,-99.99,0.000000,,2013-04-22 09:51:00,
2013-04-22 03:12:00,51.0,51.0,-100.00,West,274,4.0,5.0,100,0.00,,,-99.99,0.000000,,2013-04-22 10:12:00,
2013-04-22 03:22:00,51.0,51.0,-100.00,West,274,4.0,5.0,100,0.00,,,-99.99,0.000000,,2013-04-22 10:22:00,
2013-04-22 03:32:00,51.0,51.0,-100.00,West,274,4.0,5.0,100,0.00,,,-99.99,0.000000,,2013-04-22 10:32:00,
2013-04-22 03:42:00,51.0,51.0,-100.00,West,274,4.0,5.0,100,0.00,,,-99.99,0.000000,,2013-04-22 10:42:00,
2013-04-22 03:51:00,51.0,51.0,-100.00,East,98,3.0,6.0,100,0.00,,,0.00,0.000000,,2013-04-22 10:51:00,
2013-04-22 04:22:00,51.0,51.0,-100.00,East,98,3.0,6.0,100,0.00,,,0.00,0.000000,,2013-04-22 11:22:00,
2013-04-22 04:32:00,51.0,51.0,-100.00,East,98,3.0,6.0,100,0.00,,,0.00,0.000000,,2013-04-22 11:32:00,
2013-04-22 04:42:00,51.0,51.0,-100.00,East,98,3.0,6.0,100,0.00,,,0.00,0.000000,,2013-04-22 11:42:00,
2013-04-22 04:51:00,51.0,51.0,-100.00,East,81,4.0,6.0,100,0.00,,,0.00,0.000000,,2013-04-22 11:51:00,
2013-04-22 05:12:00,51.0,51.0,-100.00,East,81,4.0,6.0,100,0.00,,,0.00,0.000000,,2013-04-22 12:12:00,
2013-04-22 05:21:00,51.0,51.0,-100.00,East,81,4.0,6.0,100,0.00,,,0.00,0.000000,,2013-04-22 12:21:00,
2013-04-22 05:31:00,51.0,51.0,-100.00,East,81,4.0,6.0,100,0.00,,,0.00,0.000000,,2013-04-22 12:31:00,
2013-04-22 05:42:00,51.0,51.0,-100.00,East,81,4.0,6.0,100,0.00,,,0.00,0.000000,,2013-04-22 12:42:00,
2013-04-22 05:51:00,50.0,50.0,-100.00,ENE,62,5.0,7.0,99,0.00,,,0.00,0.000000,,2013-04-22 12:51:00,
2013-04-22 06:11:00,50.0,50.0,-100.00,ENE,62,5.0,7.0,99,0.00,,,0.00,0.000000,,2013-04-22 13:11:00,
2013-04-22 06:22:00,50.0,50.0,-100.00,ENE,62,5.0,7.0,99,0.00,,,0.00,0.000000,,2013-04-22 13:22:00,
2013-04-22 06:31:00,50.0,50.0,-100.00,ENE,62,5.0,7.0,99,0.00,,,0.00,0.000000,,2013-04-22 13:31:00,
2013-04-22 06:41:00,50.0,50.0,-100.00,ENE,62,5.0,7.0,99,0.00,,,0.00,0.000000,,2013-04-22 13:41:00,
2013-04-22 06:51:00,50.0,50.0,-100.00,ENE,76,6.0,8.0,99,0.00,,,0.00,6.000000,,2013-04-22 13:51:00,
2013-04-22 07:11:00,50.0,50.0,-100.00,ENE,76,6.0,8.0,99,0.00,,,0.00,6.000000,,2013-04-22 14:11:00,
2013-04-22 07:21:00,50.0,50.0,-100.00,ENE,76,6.0,8.0,99,0.00,,,0.00,6.000000,,2013-04-22 14:21:00,
2013-04-22 07:33:00,50.0,50.0,-100.00,ENE,76,6.0,8.0,99,0.00,,,0.00,6.000000,,2013-04-22 14:33:00,
2013-04-22 07:42:00,50.0,50.0,-100.00,ENE,76,6.0,8.0,99,0.00,,,0.00,6.000000,,2013-04-22 14:42:00,
2013-04-22 07:51:00,52.0,51.0,-100.00,ENE,64,3.0,7.0,95,0.00,,,0.00,53.000000,,2013-04-22 14:51:00,
2013-04-22 08:11:00,52.0,51.0,-100.00,ENE,64,3.0,7.0,95,0.00,,,0.00,53.000000,,2013-04-22 15:11:00,
2013-04-22 08:22:00,52.0,51.0,-100.00,ENE,64,3.0,7.0,95,0.00,,,0.00,53.000000,,2013-04-22 15:22:00,
2013-04-22 08:33:00,52.0,51.0,-100.00,ENE,64,3.0,7.0,95,0.00,,,0.00,53.000000,,2013-04-22 15:33:00,
2013-04-22 08:42:00,52.0,51.0,-100.00,ENE,64,3.0,7.0,95,0.00,,,0.00,53.000000,,2013-04-22 15:42:00,
2013-04-22 08:51:00,56.0,51.0,-100.00,North,349,2.0,6.0,84,0.00,,,0.00,187.000000,,2013-04-22 15:51:00,
2013-04-22 09:23:00,56.0,51.0,-100.00,North,349,2.0,6.0,84,0.00,,,0.00,187.000000,,2013-04-22 16:23:00,
2013-04-22 09:33:00,56.0,51.0,-100.00,North,349,2.0,6.0,84,0.00,,,0.00,187.000000,,2013-04-22 16:33:00,
2013-04-22 09:42:00,56.0,51.0,-100.00,North,349,2.0,6.0,84,0.00,,,0.00,187.000000,,2013-04-22 16:42:00,
2013-04-22 09:51:00,61.0,52.0,-100.00,WSW,258,5.0,11.0,71,0.00,,,0.00,611.000000,,2013-04-22 16:51:00,
2013-04-22 10:12:00,61.0,52.0,-100.00,WSW,258,5.0,11.0,71,0.00,,,0.00,611.000000,,2013-04-22 17:12:00,
2013-04-22 10:22:00,61.0,52.0,-100.00,WSW,258,5.0,11.0,71,0.00,,,0.00,611.000000,,2013-04-22 17:22:00,
2013-04-22 10:31:00,61.0,52.0,-100.00,WSW,258,5.0,11.0,71,0.00,,,0.00,611.000000,,2013-04-22 17:31:00,
2013-04-22 10:42:00,61.0,52.0,-100.00,WSW,258,5.0,11.0,71,0.00,,,0.00,611.000000,,2013-04-22 17:42:00,
2013-04-22 10:51:00,67.0,52.0,-100.00,West,259,6.0,11.0,58,0.00,,,0.00,742.000000,,2013-04-22 17:51:00,
2013-04-22 11:12:00,67.0,52.0,-100.00,West,259,6.0,11.0,58,0.00,,,0.00,742.000000,,2013-04-22 18:12:00,
2013-04-22 11:21:00,67.0,52.0,-100.00,West,259,6.0,11.0,58,0.00,,,0.00,742.000000,,2013-04-22 18:21:00,
2013-04-22 11:32:00,67.0,52.0,-100.00,West,259,6.0,11.0,58,0.00,,,0.00,742.000000,,2013-04-22 18:32:00,
2013-04-22 11:42:00,67.0,52.0,-100.00,West,259,6.0,11.0,58,0.00,,,0.00,742.000000,,2013-04-22 18:42:00,
2013-04-22 11:51:00,71.0,52.0,-100.00,West,263,8.0,14.0,51,0.00,,,0.00,868.000000,,2013-04-22 18:51:00,
2013-04-22 12:12:00,71.0,52.0,-100.00,West,263,8.0,14.0,51,0.00,,,0.00,868.000000,,2013-04-22 19:12:00,
2013-04-22 12:21:00,71.0,52.0,-100.00,West,263,8.0,14.0,51,0.00,,,0.00,868.000000,,2013-04-22 19:21:00,
2013-04-22 12:32:00,71.0,52.0,-100.00,West,263,8.0,14.0,51,0.00,,,0.00,868.000000,,2013-04-22 19:32:00,
2013-04-22 12:42:00,71.0,52.0,-100.00,West,263,8.0,14.0,51,0.00,,,0.00,868.000000,,2013-04-22 19:42:00,
2013-04-22 12:51:00,72.0,52.0,-100.00,WSW,255,10.0,16.0,49,0.00,,,0.00,934.000000,,2013-04-22 19:51:00,
2013-04-22 13:11:00,72.0,52.0,-100.00,WSW,255,10.0,16.0,49,0.00,,,0.00,934.000000,,2013-04-22 20:11:00,
2013-04-22 13:22:00,72.0,52.0,-100.00,WSW,255,10.0,16.0,49,0.00,,,0.00,934.000000,,2013-04-22 20:22:00,
2013-04-22 13:32:00,72.0,52.0,-100.00,WSW,255,10.0,16.0,49,0.00,,,0.00,934.000000,,2013-04-22 20:32:00,
2013-04-22 13:41:00,72.0,52.0,-100.00,WSW,255,10.0,16.0,49,0.00,,,0.00,934.000000,,2013-04-22 20:41:00,
2013-04-22 13:51:00,71.0,51.0,-100.00,WSW,252,13.0,18.0,50,0.00,,,0.00,943.000000,,2013-04-22 20:51:00,
2013-04-22 14:21:00,71.0,51.0,-100.00,WSW,252,13.0,18.0,50,0.00,,,0.00,943.000000,,2013-04-22 21:21:00,
2013-04-22 14:32:00,71.0,51.0,-100.00,WSW,252,13.0,18.0,50,0.00,,,0.00,943.000000,,2013-04-22 21:32:00,
2013-04-22 14:42:00,71.0,51.0,-100.00,WSW,252,13.0,18.0,50,0.00,,,0.00,943.000000,,2013-04-22 21:42:00,
2013-04-22 14:51:00,69.0,51.0,-100.00,WSW,256,15.0,21.0,53,0.00,,,0.00,887.000000,,2013-04-22 21:51:00,
2013-04-22 15:12:00,69.0,51.0,-100.00,WSW,256,15.0,21.0,53,0.00,,,0.00,887.000000,,2013-04-22 22:12:00,
2013-04-22 15:22:00,69.0,51.0,-100.00,WSW,256,15.0,21.0,53,0.00,,,0.00,887.000000,,2013-04-22 22:22:00,
2013-04-22 15:33:00,69.0,51.0,-100.00,WSW,256,15.0,21.0,53,0.00,,,0.00,887.000000,,2013-04-22 22:33:00,
2013-04-22 15:42:00,69.0,51.0,-100.00,WSW,256,15.0,21.0,53,0.00,,,0.00,887.000000,,2013-04-22 22:42:00,
2013-04-22 15:51:00,69.0,52.0,-100.00,WSW,257,13.0,21.0,55,0.00,,,0.00,766.000000,,2013-04-22 22:51:00,
2013-04-22 16:11:00,69.0,52.0,-100.00,WSW,257,13.0,21.0,55,0.00,,,0.00,766.000000,,2013-04-22 23:11:00,
2013-04-22 16:21:00,69.0,52.0,-100.00,WSW,257,13.0,21.0,55,0.00,,,0.00,766.000000,,2013-04-22 23:21:00,
2013-04-22 16:32:00,69.0,52.0,-100.00,WSW,257,13.0,21.0,55,0.00,,,0.00,766.000000,,2013-04-22 23:32:00,
2013-04-22 16:42:00,69.0,52.0,-100.00,WSW,257,13.0,21.0,55,0.00,,,0.00,766.000000,,2013-04-22 23:42:00,
2013-04-22 16:51:00,66.0,51.0,-100.00,WSW,257,12.0,18.0,59,0.00,,,0.00,580.000000,,2013-04-22 23:51:00,
2013-04-22 17:21:00,66.0,51.0,-100.00,WSW,257,12.0,18.0,59,0.00,,,0.00,580.000000,,2013-04-23 00:21:00,
2013-04-22 17:31:00,66.0,51.0,-100.00,WSW,257,12.0,18.0,59,0.00,,,0.00,580.000000,,2013-04-23 00:31:00,
2013-04-22 17:42:00,66.0,51.0,-100.00,WSW,257,12.0,18.0,59,0.00,,,0.00,580.000000,,2013-04-23 00:42:00,
2013-04-22 17:51:00,63.0,52.0,-100.00,West,266,10.0,17.0,67,0.00,,,0.00,395.000000,,2013-04-23 00:51:00,
2013-04-22 18:11:00,63.0,52.0,-100.00,West,266,10.0,17.0,67,0.00,,,0.00,395.000000,,2013-04-23 01:11:00,
2013-04-22 18:21:00,63.0,52.0,-100.00,West,266,10.0,17.0,67,0.00,,,0.00,395.000000,,2013-04-23 01:21:00,
2013-04-22 18:32:00,63.0,52.0,-100.00,West,266,10.0,17.0,67,0.00,,,0.00,395.000000,,2013-04-23 01:32:00,
2013-04-22 18:42:00,63.0,52.0,-100.00,West,266,10.0,17.0,67,0.00,,,0.00,395.000000,,2013-04-23 01:42:00,
2013-04-22 18:51:00,57.0,51.0,-100.00,SW,235,9.0,13.0,79,0.00,,,0.00,176.000000,,2013-04-23 01:51:00,
2013-04-22 19:12:00,57.0,51.0,-100.00,SW,235,9.0,13.0,79,0.00,,,0.00,176.000000,,2013-04-23 02:12:00,
2013-04-22 19:21:00,57.0,51.0,-100.00,SW,235,9.0,13.0,79,0.00,,,0.00,176.000000,,2013-04-23 02:21:00,
2013-04-22 19:32:00,57.0,51.0,-100.00,SW,235,9.0,13.0,79,0.00,,,0.00,176.000000,,2013-04-23 02:32:00,
2013-04-22 19:42:00,57.0,51.0,-100.00,SW,235,9.0,13.0,79,0.00,,,0.00,176.000000,,2013-04-23 02:42:00,
2013-04-22 19:51:00,54.0,51.0,-100.00,SSE,161,4.0,12.0,88,0.00,,,0.00,17.000000,,2013-04-23 02:51:00,
2013-04-22 20:21:00,54.0,51.0,-100.00,SSE,161,4.0,12.0,88,0.00,,,0.00,17.000000,,2013-04-23 03:21:00,
2013-04-22 20:33:00,54.0,51.0,-100.00,SSE,161,4.0,12.0,88,0.00,,,0.00,17.000000,,2013-04-23 03:33:00,
2013-04-22 20:43:00,54.0,51.0,-100.00,SSE,161,4.0,12.0,88,0.00,,,0.00,17.000000,,2013-04-23 03:43:00,
2013-04-22 20:51:00,55.0,51.0,-100.00,South,171,6.0,9.0,87,0.00,,,0.00,0.000000,,2013-04-23 03:51:00,
2013-04-22 21:12:00,55.0,51.0,-100.00,South,171,6.0,9.0,87,0.00,,,0.00,0.000000,,2013-04-23 04:12:00,
2013-04-22 21:23:00,55.0,51.0,-100.00,South,171,6.0,9.0,87,0.00,,,0.00,0.000000,,2013-04-23 04:23:00,
2013-04-22 21:33:00,55.0,51.0,-100.00,South,171,6.0,9.0,87,0.00,,,0.00,0.000000,,2013-04-23 04:33:00,
2013-04-22 21:43:00,55.0,51.0,-100.00,South,171,6.0,9.0,87,0.00,,,0.00,0.000000,,2013-04-23 04:43:00,
2013-04-22 21:51:00,54.0,51.0,-100.00,SSW,198,3.0,8.0,88,0.00,,,0.00,0.000000,,2013-04-23 04:51:00,
2013-04-22 22:22:00,54.0,51.0,-100.00,SSW,198,3.0,8.0,88,0.00,,,0.00,0.000000,,2013-04-23 05:22:00,
2013-04-22 22:32:00,54.0,51.0,-100.00,SSW,198,3.0,8.0,88,0.00,,,0.00,0.000000,,2013-04-23 05:32:00,
2013-04-22 22:42:00,54.0,51.0,-100.00,SSW,198,3.0,8.0,88,0.00,,,0.00,0.000000,,2013-04-23 05:42:00,
2013-04-22 22:51:00,54.0,50.0,-100.00,SSE,161,3.0,6.0,87,0.00,,,0.00,0.000000,,2013-04-23 05:51:00,
2013-04-22 23:12:00,54.0,50.0,-100.00,SSE,161,3.0,6.0,87,0.00,,,0.00,0.000000,,2013-04-23 06:12:00,
2013-04-22 23:21:00,54.0,50.0,-100.00,SSE,161,3.0,6.0,87,0.00,,,0.00,0.000000,,2013-04-23 06:21:00,
2013-04-22 23:32:00,54.0,50.0,-100.00,SSE,161,3.0,6.0,87,0.00,,,0.00,0.000000,,2013-04-23 06:32:00,
2013-04-22 23:41:00,54.0,50.0,-100.00,SSE,161,3.0,6.0,87,0.00,,,0.00,0.000000,,2013-04-23 06:41:00,
2013-04-22 23:51:00,54.0,50.0,-100.00,WSW,246,4.0,7.0,86,0.00,,,0.00,0.000000,,2013-04-23 06:51:00,